createdAt,value
2023-07-24T00:02:00.983Z,45.30
2023-07-24T00:04:31.259Z,45.46
2023-07-24T00:07:00.201Z,45.41
2023-07-24T00:09:29.264Z,45.09
2023-07-24T00:11:58.544Z,44.73
2023-07-24T00:14:27.598Z,44.48
2023-07-24T00:16:57.053Z,44.42
2023-07-24T00:19:26.376Z,44.65
2023-07-24T00:21:55.156Z,44.56
2023-07-24T00:24:24.751Z,44.50
2023-07-24T00:26:53.743Z,44.32
2023-07-24T00:29:22.924Z,43.77
2023-07-24T00:31:52.205Z,43.57
2023-07-24T00:34:21.257Z,43.43
2023-07-24T00:36:50.624Z,43.33
2023-07-24T00:39:19.733Z,43.38
2023-07-24T00:41:48.431Z,43.43
2023-07-24T00:44:21.017Z,43.08
2023-07-24T00:46:51.307Z,43.00
2023-07-24T00:49:21.622Z,42.90
2023-07-24T00:51:51.018Z,42.93
2023-07-24T00:54:21.102Z,43.21
2023-07-24T00:56:50.218Z,43.53
2023-07-24T00:59:19.880Z,43.53
2023-07-24T01:01:48.887Z,43.72
2023-07-24T01:04:18.268Z,43.59
2023-07-24T01:06:48.129Z,43.80
2023-07-24T01:09:16.996Z,43.63
2023-07-24T01:11:51.532Z,43.35
2023-07-24T01:14:26.188Z,43.30
2023-07-24T01:16:58.498Z,43.32
2023-07-24T01:19:38.161Z,43.48
2023-07-24T01:22:16.887Z,43.50
2023-07-24T01:25:01.409Z,43.24
2023-07-24T01:27:30.411Z,43.03
2023-07-24T01:30:00.157Z,42.97
2023-07-24T01:32:29.280Z,43.14
2023-07-24T01:34:58.401Z,42.84
2023-07-24T01:37:29.073Z,43.08
2023-07-24T01:40:00.013Z,43.24
2023-07-24T01:42:30.308Z,43.23
2023-07-24T01:44:59.306Z,43.10
2023-07-24T01:47:28.986Z,43.04
2023-07-24T01:49:58.278Z,43.26
2023-07-24T01:52:28.212Z,43.39
2023-07-24T01:54:57.150Z,43.28
2023-07-24T01:57:26.555Z,43.37
2023-07-24T01:59:56.428Z,43.39
2023-07-24T02:02:26.571Z,43.29
2023-07-24T02:04:55.571Z,43.20
2023-07-24T02:07:25.613Z,43.32
2023-07-24T02:09:55.196Z,43.76
2023-07-24T02:12:27.146Z,43.68
2023-07-24T02:14:56.057Z,43.71
2023-07-24T02:17:25.852Z,43.61
2023-07-24T02:19:55.059Z,43.68
2023-07-24T02:22:23.823Z,43.77
2023-07-24T02:24:52.956Z,43.90
2023-07-24T02:27:29.553Z,44.17
2023-07-24T02:29:59.694Z,43.91
2023-07-24T02:32:29.329Z,43.78
2023-07-24T02:34:58.515Z,44.00
2023-07-24T02:37:27.564Z,44.14
2023-07-24T02:39:56.463Z,44.54
2023-07-24T02:42:25.745Z,44.71
2023-07-24T02:44:54.733Z,44.81
2023-07-24T02:47:24.011Z,44.74
2023-07-24T02:49:53.125Z,44.48
2023-07-24T02:52:21.938Z,44.34
2023-07-24T02:54:51.082Z,44.18
2023-07-24T02:57:19.960Z,44.37
2023-07-24T02:59:49.125Z,44.33
2023-07-24T03:02:18.002Z,44.61
2023-07-24T03:04:46.875Z,44.62
2023-07-24T03:07:17.527Z,44.60
2023-07-24T03:09:46.462Z,44.52
2023-07-24T03:12:15.385Z,44.60
2023-07-24T03:14:44.314Z,44.68
2023-07-24T03:17:13.086Z,44.63
2023-07-24T03:19:42.980Z,44.76
2023-07-24T03:22:12.222Z,44.82
2023-07-24T03:24:41.314Z,45.08
2023-07-24T03:27:10.183Z,45.39
2023-07-24T03:29:40.104Z,45.29
2023-07-24T03:32:09.892Z,45.11
2023-07-24T03:34:39.815Z,45.10
2023-07-24T03:37:09.302Z,45.34
2023-07-24T03:39:38.317Z,45.56
2023-07-24T03:42:10.788Z,45.90
2023-07-24T03:44:39.769Z,45.79
2023-07-24T03:47:08.974Z,45.94
2023-07-24T03:49:38.071Z,46.07
2023-07-24T03:52:07.762Z,45.86
2023-07-24T03:54:36.547Z,46.14
2023-07-24T03:57:06.571Z,46.16
2023-07-24T03:59:35.690Z,45.97
2023-07-24T04:02:06.284Z,46.24
2023-07-24T04:04:36.535Z,46.15
2023-07-24T04:07:06.306Z,46.09
2023-07-24T04:09:35.356Z,45.97
2023-07-24T04:12:05.464Z,45.80
2023-07-24T04:14:34.313Z,45.53
2023-07-24T04:17:04.203Z,45.56
2023-07-24T04:19:33.267Z,45.69
2023-07-24T04:22:02.114Z,45.57
2023-07-24T04:24:31.045Z,45.62
2023-07-24T04:26:59.960Z,45.60
2023-07-24T04:29:28.866Z,45.59
2023-07-24T04:31:58.281Z,45.53
2023-07-24T04:34:27.238Z,45.71
2023-07-24T04:36:56.141Z,45.73
2023-07-24T04:39:25.184Z,46.08
2023-07-24T04:41:54.629Z,46.36
2023-07-24T04:44:23.653Z,46.36
2023-07-24T04:46:52.679Z,46.36
2023-07-24T04:49:21.736Z,46.32
2023-07-24T04:51:50.843Z,46.74
2023-07-24T04:54:19.950Z,46.70
2023-07-24T04:56:48.809Z,46.71
2023-07-24T04:59:17.606Z,46.66
2023-07-24T05:01:46.893Z,46.39
2023-07-24T05:04:15.918Z,46.20
2023-07-24T05:06:45.060Z,46.15
2023-07-24T05:09:15.093Z,46.13
2023-07-24T05:11:45.466Z,46.12
2023-07-24T05:14:14.317Z,46.25
2023-07-24T05:16:43.784Z,46.24
2023-07-24T05:19:13.386Z,46.06
2023-07-24T05:21:42.488Z,46.01
2023-07-24T05:24:11.682Z,45.90
2023-07-24T05:26:41.023Z,45.85
2023-07-24T05:29:10.318Z,45.84
2023-07-24T05:31:39.403Z,45.94
2023-07-24T05:34:08.434Z,45.97
2023-07-24T05:36:38.021Z,45.92
2023-07-24T05:39:07.853Z,46.02
2023-07-24T05:41:39.139Z,45.97
2023-07-24T05:44:10.589Z,45.95
2023-07-24T05:46:39.524Z,46.27
2023-07-24T05:49:08.524Z,46.27
2023-07-24T05:51:37.613Z,46.31
2023-07-24T05:54:06.557Z,46.26
2023-07-24T05:56:35.650Z,45.92
2023-07-24T05:59:04.639Z,45.99
2023-07-24T06:01:33.926Z,46.18
2023-07-24T06:04:03.351Z,46.38
2023-07-24T06:06:33.316Z,46.41
2023-07-24T06:09:04.021Z,46.64
2023-07-24T06:11:37.649Z,46.33
2023-07-24T06:14:07.315Z,46.03
2023-07-24T06:16:37.086Z,45.81
2023-07-24T06:19:07.432Z,45.41
2023-07-24T06:26:07.170Z,44.97
2023-07-24T06:28:50.045Z,44.63
2023-07-24T06:31:56.415Z,44.57
2023-07-24T06:34:26.209Z,44.37
2023-07-24T06:36:57.336Z,44.11
2023-07-24T06:39:30.960Z,44.12
2023-07-24T06:42:00.717Z,43.90
2023-07-24T06:44:30.844Z,44.11
2023-07-24T06:47:00.331Z,44.23
2023-07-24T06:49:31.758Z,44.09
2023-07-24T06:52:01.382Z,44.08
2023-07-24T06:54:31.266Z,43.88
2023-07-24T06:57:01.107Z,43.77
2023-07-24T06:59:30.396Z,43.55
2023-07-24T07:01:59.725Z,43.34
2023-07-24T07:04:31.797Z,43.10
2023-07-24T07:07:00.966Z,42.76
2023-07-24T07:09:31.797Z,42.39
2023-07-24T07:12:01.111Z,42.21
2023-07-24T07:14:30.796Z,42.15
2023-07-24T07:17:01.618Z,41.93
2023-07-24T07:19:31.008Z,41.49
2023-07-24T07:22:02.624Z,41.14
2023-07-24T07:24:31.970Z,40.80
2023-07-24T07:27:02.290Z,40.42
2023-07-24T07:29:32.218Z,40.23
2023-07-24T07:32:01.567Z,40.56
2023-07-24T07:34:30.809Z,40.33
2023-07-24T07:37:00.119Z,40.04
2023-07-24T07:39:30.165Z,39.51
2023-07-24T07:42:12.112Z,39.24
2023-07-24T07:44:47.929Z,39.15
2023-07-24T07:47:17.358Z,38.83
2023-07-24T07:49:49.124Z,38.76
2023-07-24T07:52:19.418Z,38.59
2023-07-24T07:54:50.327Z,38.61
2023-07-24T07:57:19.805Z,38.32
2023-07-24T07:59:48.908Z,38.39
2023-07-24T08:02:19.776Z,38.75
2023-07-24T08:04:50.342Z,38.93
2023-07-24T08:07:19.807Z,38.70
2023-07-24T08:09:49.189Z,38.03
2023-07-24T08:12:18.530Z,37.97
2023-07-24T08:14:47.805Z,37.85
2023-07-24T08:17:18.318Z,38.01
2023-07-24T08:19:50.706Z,37.76
2023-07-24T08:22:20.873Z,37.45
2023-07-24T08:24:52.677Z,37.30
2023-07-24T08:27:24.602Z,37.04
2023-07-24T08:29:56.719Z,37.00
2023-07-24T08:32:26.217Z,37.04
2023-07-24T08:34:57.394Z,37.08
2023-07-24T08:37:28.722Z,36.74
2023-07-24T08:39:57.951Z,36.85
2023-07-24T08:42:27.838Z,36.75
2023-07-24T08:44:59.939Z,36.46
2023-07-24T08:47:30.646Z,36.71
2023-07-24T08:50:00.235Z,36.81
2023-07-24T08:52:35.993Z,37.11
2023-07-24T08:55:08.144Z,36.92
2023-07-24T08:57:37.537Z,36.43
2023-07-24T09:00:09.058Z,36.19
2023-07-24T09:02:38.809Z,36.04
2023-07-24T09:05:10.477Z,35.84
2023-07-24T09:07:40.889Z,36.01
2023-07-24T09:10:12.295Z,36.18
2023-07-24T09:12:44.830Z,36.48
2023-07-24T09:15:14.363Z,36.38
2023-07-24T09:17:51.689Z,36.29
2023-07-24T09:23:13.319Z,35.91
2023-07-24T09:25:45.257Z,35.86
2023-07-24T09:28:16.064Z,35.57
2023-07-24T09:30:55.268Z,35.47
2023-07-24T09:33:25.661Z,35.33
2023-07-24T09:36:02.294Z,35.70
2023-07-24T09:38:32.224Z,35.48
2023-07-24T09:41:04.152Z,35.25
2023-07-24T09:43:39.864Z,35.05
2023-07-24T09:46:14.244Z,34.97
2023-07-24T09:51:33.478Z,34.44
2023-07-24T09:54:14.865Z,34.34
2023-07-24T09:56:51.965Z,33.76
2023-07-24T09:59:28.568Z,33.55
2023-07-24T10:01:59.622Z,33.35
2023-07-24T10:04:29.404Z,33.33
2023-07-24T10:06:59.754Z,33.56
2023-07-24T10:09:30.921Z,33.51
2023-07-24T10:12:02.201Z,33.36
2023-07-24T10:14:32.244Z,33.12
2023-07-24T10:17:01.964Z,33.06
2023-07-24T10:19:41.099Z,32.93
2023-07-24T10:22:10.759Z,32.67
2023-07-24T10:24:42.892Z,33.09
2023-07-24T10:27:13.091Z,33.10
2023-07-24T10:29:43.547Z,33.04
2023-07-24T10:32:23.044Z,33.13
2023-07-24T10:35:09.828Z,33.22
2023-07-24T10:37:39.992Z,33.33
2023-07-24T10:40:22.801Z,33.21
2023-07-24T10:43:02.613Z,32.99
2023-07-24T10:45:51.813Z,32.87
2023-07-24T10:48:22.603Z,32.78
2023-07-24T10:50:54.764Z,32.61
2023-07-24T10:53:26.588Z,32.47
2023-07-24T10:55:56.272Z,32.35
2023-07-24T10:58:28.352Z,32.43
2023-07-24T11:00:59.769Z,32.51
2023-07-24T11:03:29.983Z,32.11
2023-07-24T11:06:00.906Z,31.88
2023-07-24T11:08:32.092Z,31.96
2023-07-24T11:11:03.972Z,31.73
2023-07-24T11:13:35.244Z,31.69
2023-07-24T11:16:09.271Z,31.57
2023-07-24T11:18:53.994Z,31.57
2023-07-24T11:21:25.228Z,31.57
2023-07-24T11:23:56.532Z,31.62
2023-07-24T11:26:27.646Z,31.73
2023-07-24T11:28:57.101Z,31.50
2023-07-24T11:31:27.553Z,31.27
2023-07-24T11:33:57.893Z,31.36
2023-07-24T11:36:31.198Z,31.25
2023-07-24T11:39:00.523Z,31.15
2023-07-24T11:41:31.418Z,31.03
2023-07-24T11:44:01.816Z,30.83
2023-07-24T11:46:32.996Z,30.51
2023-07-24T11:49:03.264Z,30.43
2023-07-24T11:51:35.684Z,30.26
2023-07-24T11:54:09.670Z,30.18
2023-07-24T11:56:37.971Z,30.40
2023-07-24T11:59:16.817Z,30.66
2023-07-24T12:01:49.731Z,30.69
2023-07-24T12:04:19.893Z,30.53
2023-07-24T12:06:50.603Z,30.43
2023-07-24T12:09:20.129Z,30.53
2023-07-24T12:11:49.879Z,30.24
2023-07-24T12:14:19.755Z,30.21
2023-07-24T12:16:50.894Z,30.19
2023-07-24T12:19:20.141Z,30.03
2023-07-24T12:21:50.783Z,30.18
2023-07-24T12:24:20.500Z,30.23
2023-07-24T12:26:50.261Z,29.89
2023-07-24T12:29:39.196Z,29.90
2023-07-24T12:32:15.038Z,29.77
2023-07-24T12:34:46.563Z,29.92
2023-07-24T12:37:20.651Z,30.11
2023-07-24T12:39:56.391Z,30.14
2023-07-24T12:42:45.674Z,30.01
2023-07-24T12:46:31.719Z,30.34
2023-07-24T12:50:08.587Z,30.23
2023-07-24T12:52:39.979Z,29.86
2023-07-24T12:55:14.214Z,29.56
2023-07-24T12:57:47.525Z,29.72
2023-07-24T13:00:24.943Z,29.97
2023-07-24T13:03:00.395Z,30.06
2023-07-24T13:05:30.187Z,29.94
2023-07-24T13:07:59.857Z,29.83
2023-07-24T13:10:33.812Z,29.71
2023-07-24T13:13:03.070Z,29.64
2023-07-24T13:15:33.968Z,29.74
2023-07-24T13:18:17.723Z,29.66
2023-07-24T13:20:53.914Z,29.53
2023-07-24T13:23:22.942Z,29.46
2023-07-24T13:25:53.350Z,29.63
2023-07-24T13:28:22.866Z,29.55
2023-07-24T13:30:52.434Z,29.48
2023-07-24T13:33:23.219Z,29.88
2023-07-24T13:35:55.687Z,30.02
2023-07-24T13:38:27.350Z,29.94
2023-07-24T13:40:59.034Z,29.61
2023-07-24T13:43:28.536Z,29.22
2023-07-24T13:46:03.466Z,29.46
2023-07-24T13:48:33.983Z,29.63
2023-07-24T13:51:13.255Z,29.18
2023-07-24T13:53:48.540Z,29.23
2023-07-24T13:56:24.064Z,29.10
2023-07-24T13:59:02.707Z,29.23
2023-07-24T14:02:34.736Z,29.05
2023-07-24T14:05:08.083Z,28.99
2023-07-24T14:07:37.367Z,29.02
2023-07-24T14:10:08.691Z,29.14
2023-07-24T14:12:38.401Z,29.07
2023-07-24T14:15:09.848Z,29.05
2023-07-24T14:17:40.508Z,29.01
2023-07-24T14:20:13.585Z,28.96
2023-07-24T14:22:44.126Z,28.87
2023-07-24T14:25:16.387Z,29.19
2023-07-24T14:27:47.519Z,29.10
2023-07-24T14:30:18.672Z,29.44
2023-07-24T14:32:50.470Z,29.65
2023-07-24T14:35:20.405Z,29.32
2023-07-24T14:37:50.637Z,29.35
2023-07-24T14:40:22.725Z,29.32
2023-07-24T14:42:52.937Z,29.17
2023-07-24T14:45:23.254Z,29.15
2023-07-24T14:47:55.092Z,29.05
2023-07-24T14:50:29.715Z,29.02
2023-07-24T14:52:59.859Z,29.01
2023-07-24T14:55:30.465Z,29.14
2023-07-24T14:58:02.020Z,28.66
2023-07-24T15:00:34.004Z,28.69
2023-07-24T15:03:05.400Z,28.66
2023-07-24T15:05:38.915Z,28.77
2023-07-24T15:08:11.274Z,28.89
2023-07-24T15:10:42.822Z,28.93
2023-07-24T15:13:15.506Z,28.78
2023-07-24T15:15:57.560Z,28.45
2023-07-24T15:18:30.587Z,28.00
2023-07-24T15:21:03.891Z,28.09
2023-07-24T15:23:35.392Z,28.02
2023-07-24T15:26:09.982Z,28.07
2023-07-24T15:28:40.763Z,28.19
2023-07-24T15:31:13.110Z,28.15
2023-07-24T15:33:42.663Z,28.24
2023-07-24T15:36:13.925Z,28.12
2023-07-24T15:38:45.388Z,28.20
2023-07-24T15:41:16.398Z,28.23
2023-07-24T15:43:46.247Z,27.90
2023-07-24T15:46:18.168Z,28.08
2023-07-24T15:48:48.470Z,28.17
2023-07-24T15:51:18.006Z,28.39
2023-07-24T15:53:48.015Z,28.26
2023-07-24T15:56:19.850Z,28.34
2023-07-24T15:59:07.336Z,28.21
2023-07-24T16:02:02.985Z,28.29
2023-07-24T16:04:33.991Z,28.20
2023-07-24T16:07:18.290Z,28.31
2023-07-24T16:09:49.146Z,28.27
2023-07-24T16:12:30.406Z,28.34
2023-07-24T16:15:00.953Z,28.62
2023-07-24T16:17:33.758Z,28.55
2023-07-24T16:20:04.636Z,28.63
2023-07-24T16:22:35.514Z,28.71
2023-07-24T16:25:07.548Z,28.95
2023-07-24T16:27:37.751Z,29.14
2023-07-24T16:30:12.951Z,29.03
2023-07-24T16:32:49.145Z,29.29
2023-07-24T16:35:38.837Z,29.19
2023-07-24T16:38:19.939Z,29.10
2023-07-24T16:40:53.233Z,28.98
2023-07-24T16:43:23.918Z,29.05
2023-07-24T16:48:32.453Z,29.42
2023-07-24T16:51:04.587Z,29.69
2023-07-24T16:53:38.669Z,29.84
2023-07-24T16:56:13.889Z,30.00
2023-07-24T16:58:49.049Z,30.28
2023-07-24T17:01:19.801Z,30.12
2023-07-24T17:03:52.568Z,30.17
2023-07-24T17:06:27.630Z,30.32
2023-07-24T17:08:59.197Z,30.47
2023-07-24T17:11:34.324Z,30.69
2023-07-24T17:14:05.168Z,30.61
2023-07-24T17:16:38.356Z,30.89
2023-07-24T17:19:12.093Z,31.07
2023-07-24T17:21:44.776Z,31.09
2023-07-24T17:24:18.108Z,31.50
2023-07-24T17:26:52.548Z,31.64
2023-07-24T17:29:23.478Z,31.65
2023-07-24T17:31:56.632Z,32.07
2023-07-24T17:34:28.261Z,32.30
2023-07-24T17:37:00.809Z,32.27
2023-07-24T17:39:32.938Z,32.49
2023-07-24T17:42:11.402Z,32.59
2023-07-24T17:45:02.600Z,32.60
2023-07-24T17:47:48.939Z,32.70
2023-07-24T17:50:31.408Z,32.75
2023-07-24T17:53:06.884Z,33.28
2023-07-24T17:55:53.602Z,33.48
2023-07-24T17:58:35.673Z,33.45
2023-07-24T18:01:14.303Z,33.61
2023-07-24T18:03:49.104Z,33.67
2023-07-24T18:06:22.811Z,34.28
2023-07-24T18:09:02.774Z,34.81
2023-07-24T18:11:40.596Z,35.14
2023-07-24T18:14:23.195Z,35.64
2023-07-24T18:17:08.092Z,36.31
2023-07-24T18:19:45.932Z,36.59
2023-07-24T18:22:24.505Z,36.58
2023-07-24T18:25:11.058Z,36.99
2023-07-24T18:27:52.229Z,37.29
2023-07-24T18:30:29.686Z,37.46
2023-07-24T18:33:05.931Z,37.62
2023-07-24T18:35:39.669Z,37.95
2023-07-24T18:38:14.737Z,38.23
2023-07-24T18:40:52.817Z,38.59
2023-07-24T18:43:33.589Z,38.86
2023-07-24T18:46:05.628Z,39.15
2023-07-24T18:48:37.648Z,39.14
2023-07-24T18:51:09.497Z,39.13
2023-07-24T18:53:42.857Z,39.11
2023-07-24T18:56:14.172Z,39.15
2023-07-24T18:58:49.458Z,39.02
2023-07-24T19:01:21.105Z,39.04
2023-07-24T19:03:54.250Z,39.16
2023-07-24T19:06:27.019Z,39.54
2023-07-24T19:09:01.069Z,39.62
2023-07-24T19:11:33.237Z,39.93
2023-07-24T19:14:05.262Z,40.12
2023-07-24T19:16:35.996Z,40.45
2023-07-24T19:19:12.979Z,40.69
2023-07-24T19:21:46.475Z,40.93
2023-07-24T19:24:21.473Z,41.14
2023-07-24T19:26:54.388Z,41.13
2023-07-24T19:29:28.709Z,41.14
2023-07-24T19:32:06.682Z,41.39
2023-07-24T19:34:46.108Z,41.64
2023-07-24T19:37:36.510Z,41.92
2023-07-24T19:40:18.934Z,42.02
2023-07-24T19:42:55.465Z,42.34
2023-07-24T19:45:29.004Z,42.34
2023-07-24T19:48:01.621Z,42.61
2023-07-24T19:50:32.119Z,42.67
2023-07-24T19:53:04.316Z,42.91
2023-07-24T19:55:36.831Z,43.15
2023-07-24T19:58:18.464Z,43.26
2023-07-24T20:01:01.337Z,43.47
2023-07-24T20:03:34.322Z,43.66
2023-07-24T20:06:14.688Z,43.64
2023-07-24T20:08:53.486Z,43.93
2023-07-24T20:11:24.948Z,44.35
2023-07-24T20:13:57.720Z,44.42
2023-07-24T20:16:34.423Z,44.48
2023-07-24T20:19:03.939Z,44.45
2023-07-24T20:21:39.458Z,44.44
2023-07-24T20:24:18.340Z,44.58
2023-07-24T20:26:47.662Z,44.90
2023-07-24T20:29:20.237Z,45.33
2023-07-24T20:31:53.158Z,45.54
2023-07-24T20:34:24.490Z,45.87
2023-07-24T20:36:55.339Z,46.12
2023-07-24T20:39:32.672Z,46.26
2023-07-24T20:42:04.013Z,46.49
2023-07-24T20:44:35.225Z,46.45
2023-07-24T20:47:07.290Z,46.27
2023-07-24T20:49:40.185Z,46.46
2023-07-24T20:52:11.125Z,46.94
2023-07-24T20:54:40.646Z,47.12
2023-07-24T20:57:10.946Z,47.07
2023-07-24T20:59:42.696Z,47.21
2023-07-24T21:02:12.522Z,47.08
2023-07-24T21:04:42.624Z,47.12
2023-07-24T21:07:12.205Z,47.20
2023-07-24T21:09:44.762Z,47.11
2023-07-24T21:12:14.214Z,47.34
2023-07-24T21:14:43.388Z,47.55
2023-07-24T21:17:12.779Z,47.87
2023-07-24T21:19:41.713Z,48.21
2023-07-24T21:22:11.211Z,48.14
2023-07-24T21:24:41.400Z,47.97
2023-07-24T21:27:10.640Z,47.86
2023-07-24T21:29:39.640Z,48.10
2023-07-24T21:32:09.701Z,48.38
2023-07-24T21:34:38.797Z,48.50
2023-07-24T21:37:08.127Z,48.44
2023-07-24T21:39:36.909Z,48.27
2023-07-24T21:42:07.305Z,48.50
2023-07-24T21:44:36.520Z,48.51
2023-07-24T21:47:06.885Z,48.71
2023-07-24T21:49:38.771Z,49.02
2023-07-24T21:52:09.241Z,49.26
2023-07-24T21:54:41.957Z,49.49
2023-07-24T21:57:13.280Z,49.45
2023-07-24T21:59:42.886Z,49.84
2023-07-24T22:02:11.698Z,50.21
2023-07-24T22:04:40.647Z,50.46
2023-07-24T22:07:09.682Z,50.63
2023-07-24T22:09:38.906Z,51.01
2023-07-24T22:12:10.147Z,51.03
2023-07-24T22:14:40.857Z,50.90
2023-07-24T22:17:10.390Z,51.12
2023-07-24T22:19:39.346Z,51.44
2023-07-24T22:22:08.705Z,52.03
2023-07-24T22:24:39.983Z,52.22
2023-07-24T22:27:10.070Z,52.33
2023-07-24T22:29:39.767Z,52.00
2023-07-24T22:32:11.058Z,51.93
2023-07-24T22:34:39.929Z,52.42
2023-07-24T22:37:09.257Z,52.45
2023-07-24T22:39:38.696Z,52.83
2023-07-24T22:42:08.689Z,52.97
2023-07-24T22:44:38.303Z,52.90
2023-07-24T22:47:08.077Z,52.63
2023-07-24T22:49:47.443Z,52.43
2023-07-24T22:52:17.004Z,52.56
2023-07-24T22:54:48.045Z,52.89
2023-07-24T22:57:17.348Z,53.18
2023-07-24T22:59:46.248Z,53.45
2023-07-24T23:02:15.231Z,53.50
2023-07-24T23:04:44.527Z,53.52
2023-07-24T23:07:13.420Z,53.81
2023-07-24T23:09:42.273Z,54.39
2023-07-24T23:12:11.526Z,54.66
2023-07-24T23:14:40.417Z,54.84
2023-07-24T23:17:09.394Z,54.73
2023-07-24T23:19:38.177Z,54.98
2023-07-24T23:22:10.399Z,54.88
2023-07-24T23:24:39.587Z,55.28
2023-07-24T23:27:08.803Z,55.86
2023-07-24T23:29:38.331Z,56.09
2023-07-24T23:32:10.009Z,55.92
2023-07-24T23:34:38.852Z,55.84
2023-07-24T23:37:08.053Z,56.04
2023-07-24T23:39:37.034Z,56.09
2023-07-24T23:42:07.078Z,56.61
2023-07-24T23:44:36.070Z,56.81
2023-07-24T23:47:05.636Z,57.12
2023-07-24T23:49:34.565Z,57.27
2023-07-24T23:52:04.418Z,57.44
2023-07-24T23:54:35.780Z,57.27
2023-07-24T23:57:06.217Z,57.31
2023-07-24T23:59:35.300Z,56.91
